Time;durP1;ratioP1;P1;durP2;ratioP2;P2;SDS_P1;SDS_P2;PMS_P1;PMS_P2;Temp;Humidity;BMP_temperature;BMP_pressure;BME280_temperature;BME280_humidity;BME280_pressure;Samples;Min_cycle;Max_cycle;Signal;HPM_P1;HPM_P2
2021/08/13 00:00:24;;;;;;;5.73;4.30;;;;;;;17.29;94.25;101495.63;5092807;28;20933;-73
2021/08/13 00:02:50;;;;;;;6.50;4.60;;;;;;;17.32;94.55;101491.47;5093034;28;20464;-73
2021/08/13 00:05:18;;;;;;;6.70;4.07;;;;;;;17.32;94.21;101486.78;5093066;28;20443;-73
2021/08/13 00:07:45;;;;;;;6.30;3.83;;;;;;;17.31;94.83;101487.91;5092703;28;20816;-73
2021/08/13 00:10:12;;;;;;;6.60;4.70;;;;;;;17.32;95.38;101485.97;5093069;28;20447;-73
2021/08/13 00:12:38;;;;;;;6.70;4.33;;;;;;;17.30;95.36;101489.03;5092930;28;20452;-73
2021/08/13 00:15:06;;;;;;;6.07;3.77;;;;;;;17.28;95.71;101488.56;5092556;28;20441;-73
2021/08/13 00:17:32;;;;;;;7.40;4.50;;;;;;;17.23;96.04;101494.19;5092922;28;20451;-72
2021/08/13 00:19:59;;;;;;;6.37;4.07;;;;;;;17.26;95.70;101488.06;5092904;28;20444;-73
2021/08/13 00:22:27;;;;;;;6.00;3.80;;;;;;;17.32;94.91;101492.25;5092500;28;20976;-72
2021/08/13 00:24:53;;;;;;;8.33;4.07;;;;;;;17.33;94.81;101485.63;5092828;28;20807;-72
2021/08/13 00:27:20;;;;;;;7.57;4.47;;;;;;;17.41;95.05;101489.50;5092889;28;20836;-72
2021/08/13 00:29:46;;;;;;;8.00;4.33;;;;;;;17.37;94.82;101481.13;5092843;28;20443;-73
2021/08/13 00:32:13;;;;;;;9.23;5.07;;;;;;;17.42;95.12;101488.38;5092498;28;20476;-72
2021/08/13 00:34:40;;;;;;;6.63;4.37;;;;;;;17.43;95.15;101486.44;5092492;28;20823;-72
2021/08/13 00:37:07;;;;;;;6.10;4.27;;;;;;;17.46;95.39;101492.06;5092659;28;20491;-72
2021/08/13 00:39:34;;;;;;;4.73;3.60;;;;;;;17.51;94.88;101486.41;5093673;28;20440;-72
2021/08/13 00:42:01;;;;;;;6.63;4.50;;;;;;;17.58;94.62;101488.66;5096033;28;20833;-72
2021/08/13 00:44:28;;;;;;;6.30;4.47;;;;;;;17.57;94.20;101496.06;5096312;28;20451;-72
2021/08/13 00:46:55;;;;;;;6.13;4.27;;;;;;;17.59;94.47;101493.00;5096011;28;20959;-72
2021/08/13 00:49:22;;;;;;;6.23;3.93;;;;;;;17.58;94.38;101488.66;5096266;28;20436;-72
2021/08/13 00:51:48;;;;;;;7.40;4.70;;;;;;;17.55;94.17;101481.91;5096109;28;20523;-72
2021/08/13 00:54:15;;;;;;;5.80;3.90;;;;;;;17.50;94.49;101484.81;5096115;28;20440;-72
2021/08/13 00:56:43;;;;;;;7.90;4.77;;;;;;;17.51;94.84;101482.88;5095928;28;20866;-72
2021/08/13 00:59:10;;;;;;;5.57;3.83;;;;;;;17.52;94.53;101479.81;5096013;28;20461;-72
2021/08/13 01:01:37;;;;;;;3.80;3.50;;;;;;;17.50;94.43;101484.81;5095958;28;20461;-72
2021/08/13 01:04:04;;;;;;;7.97;4.97;;;;;;;17.42;95.60;101482.09;5095998;28;20445;-72
2021/08/13 01:06:31;;;;;;;7.80;4.37;;;;;;;17.36;95.99;101482.25;5095903;28;20822;-72
2021/08/13 01:08:57;;;;;;;7.43;5.10;;;;;;;17.37;96.03;101486.59;5095891;28;20440;-72
2021/08/13 01:11:32;;;;;;;8.07;4.53;;;;;;;17.35;96.13;101486.13;5095737;28;20448;-72
2021/08/13 01:14:06;;;;;;;6.70;4.13;;;;;;;17.35;95.88;101488.88;5095821;28;20426;-72
2021/08/13 01:16:35;;;;;;;6.67;4.30;;;;;;;17.34;95.66;101489.97;5095677;28;20471;-71
2021/08/13 01:19:10;;;;;;;8.30;4.90;;;;;;;17.33;95.83;101485.63;5095706;28;20451;-71
2021/08/13 01:21:46;;;;;;;6.30;4.30;;;;;;;17.26;95.96;101482.59;5095583;28;20459;-71
2021/08/13 01:24:16;;;;;;;4.60;3.33;;;;;;;17.27;95.61;101478.72;5095675;28;20428;-71
2021/08/13 01:26:49;;;;;;;6.17;4.40;;;;;;;17.29;95.81;101473.72;5095521;28;20444;-71
2021/08/13 01:29:30;;;;;;;7.60;4.60;;;;;;;17.26;95.73;101471.63;5095777;28;20432;-71
2021/08/13 01:32:31;;;;;;;7.10;4.50;;;;;;;17.28;95.08;101461.16;5095218;28;20550;-71
2021/08/13 01:35:03;;;;;;;6.97;4.00;;;;;;;17.22;95.83;101469.88;5090441;28;20799;-71
2021/08/13 01:37:31;;;;;;;5.23;3.73;;;;;;;17.22;96.01;101464.38;5095295;28;20468;-71
2021/08/13 01:40:01;;;;;;;6.47;4.00;;;;;;;17.23;95.87;101469.56;5095299;28;20447;-71
2021/08/13 01:42:29;;;;;;;5.53;4.50;;;;;;;17.26;95.43;101466.16;5095133;28;20471;-71
2021/08/13 01:44:57;;;;;;;8.10;4.53;;;;;;;17.25;94.88;101455.53;5095171;28;20452;-71
2021/08/13 01:47:24;;;;;;;6.63;4.40;;;;;;;17.22;95.99;101459.75;5095166;28;20432;-71
2021/08/13 01:49:53;;;;;;;8.03;4.77;;;;;;;17.20;95.91;101456.50;5095088;28;20436;-71
2021/08/13 01:52:20;;;;;;;7.53;4.67;;;;;;;17.15;96.72;101454.75;5095032;28;20460;-71
2021/08/13 01:54:46;;;;;;;7.50;4.70;;;;;;;17.18;96.50;101450.56;5094963;28;20445;-71
2021/08/13 01:57:13;;;;;;;8.90;4.00;;;;;;;17.16;95.94;101452.81;5095025;28;20487;-71
2021/08/13 01:59:41;;;;;;;7.50;5.37;;;;;;;17.11;94.73;101459.25;5094717;28;20436;-71
2021/08/13 02:02:07;;;;;;;6.00;4.23;;;;;;;17.10;92.22;101449.44;5095007;28;20829;-71
2021/08/13 02:04:35;;;;;;;8.00;5.23;;;;;;;17.06;91.73;101456.69;5094777;28;20452;-71
2021/08/13 02:07:03;;;;;;;6.00;4.50;;;;;;;17.00;91.19;101460.72;5094763;28;20444;-71
2021/08/13 02:09:30;;;;;;;7.53;4.20;;;;;;;16.97;91.40;101460.56;5094738;28;20452;-71
2021/08/13 02:11:56;;;;;;;5.47;3.80;;;;;;;16.98;93.24;101465.69;5094232;28;20977;-71
2021/08/13 02:14:23;;;;;;;7.80;4.43;;;;;;;17.00;94.45;101462.63;5094623;28;20444;-71
2021/08/13 02:16:54;;;;;;;5.83;4.10;;;;;;;16.97;95.77;101469.56;5094474;28;20476;-71
2021/08/13 02:19:26;;;;;;;8.10;4.53;;;;;;;17.00;95.81;101466.19;5094555;28;20451;-71
2021/08/13 02:21:53;;;;;;;8.97;4.33;;;;;;;17.00;95.04;101465.38;5094469;28;20513;-71
2021/08/13 02:24:20;;;;;;;5.87;4.03;;;;;;;16.98;93.37;101465.69;5094440;28;20448;-71
2021/08/13 02:26:48;;;;;;;7.30;5.07;;;;;;;16.97;92.75;101468.78;5094340;28;20443;-71
2021/08/13 02:29:15;;;;;;;6.60;4.53;;;;;;;16.88;93.59;101461.38;5094328;28;20440;-71
2021/08/13 02:31:41;;;;;;;5.67;4.10;;;;;;;16.78;95.88;101458.16;5093922;28;20479;-71
2021/08/13 02:34:08;;;;;;;5.70;3.67;;;;;;;16.86;96.01;101463.59;5094281;28;20436;-71
2021/08/13 02:36:41;;;;;;;7.37;4.67;;;;;;;16.86;96.93;101466.34;5094152;28;20480;-71
2021/08/13 02:39:12;;;;;;;6.10;4.20;;;;;;;16.92;97.08;101460.72;5094202;28;20425;-70
2021/08/13 02:41:42;;;;;;;6.63;4.40;;;;;;;16.94;97.23;101458.47;5093780;28;21000;-71
2021/08/13 02:44:10;;;;;;;9.07;5.30;;;;;;;16.94;97.15;101453.00;5094130;28;20474;-71
2021/08/13 02:46:40;;;;;;;7.00;5.00;;;;;;;16.92;97.79;101460.72;5093985;28;20437;-71
2021/08/13 02:49:11;;;;;;;7.47;5.37;;;;;;;16.93;97.91;101454.91;5093922;28;20440;-71
2021/08/13 02:51:41;;;;;;;7.30;5.13;;;;;;;16.95;97.37;101462.81;5093836;28;20490;-71
2021/08/13 02:54:08;;;;;;;7.40;4.10;;;;;;;16.94;98.06;101466.66;5093871;28;20475;-71
2021/08/13 02:56:37;;;;;;;7.23;4.63;;;;;;;16.97;97.37;101475.03;5093763;28;20485;-71
2021/08/13 02:59:08;;;;;;;6.83;4.17;;;;;;;17.00;97.36;101468.09;5093806;28;20440;-71
2021/08/13 03:01:39;;;;;;;6.80;4.30;;;;;;;17.03;97.02;101473.75;5093494;28;20421;-72
2021/08/13 03:04:09;;;;;;;6.83;5.20;;;;;;;16.99;98.12;101466.50;5093654;28;20443;-75
2021/08/13 03:06:37;;;;;;;7.00;4.27;;;;;;;17.05;98.09;101470.72;5093724;28;20440;-74
2021/08/13 03:09:05;;;;;;;7.80;5.50;;;;;;;17.07;97.72;101471.97;5093651;28;20450;-72
2021/08/13 03:11:34;;;;;;;5.00;3.93;;;;;;;17.07;97.44;101462.97;5096047;28;20833;-72
2021/08/13 03:14:02;;;;;;;5.97;4.37;;;;;;;17.02;95.85;101468.59;5097927;28;20796;-72
2021/08/13 03:16:32;;;;;;;8.53;4.60;;;;;;;17.04;93.78;101469.88;5093492;28;20480;-72
2021/08/13 03:18:58;;;;;;;7.47;5.30;;;;;;;17.04;93.09;101466.34;5093516;28;20444;-72
2021/08/13 03:21:25;;;;;;;6.17;4.53;;;;;;;16.99;93.20;101471.97;5093439;28;20448;-72
2021/08/13 03:23:53;;;;;;;7.90;5.00;;;;;;;16.97;93.69;101466.03;5093179;28;20440;-72
2021/08/13 03:26:20;;;;;;;6.30;4.23;;;;;;;17.02;95.75;101468.59;5092190;28;20798;-72
2021/08/13 03:28:47;;;;;;;5.73;4.43;;;;;;;16.98;96.77;101460.22;5073219;28;20448;-72
2021/08/13 03:31:32;;;;;;;6.13;4.77;;;;;;;16.96;97.09;101469.91;5073018;28;20475;-72
2021/08/13 03:33:59;;;;;;;6.90;4.03;;;;;;;17.00;97.33;101465.38;5072852;28;20437;-72
2021/08/13 03:36:25;;;;;;;7.07;4.70;;;;;;;17.04;96.92;101464.41;5073085;28;20688;-72
2021/08/13 03:38:52;;;;;;;8.17;5.20;;;;;;;16.98;98.19;101470.38;5085971;28;20460;-72
2021/08/13 03:41:18;;;;;;;7.73;5.03;;;;;;;17.05;98.19;101466.03;5093215;28;20444;-72
2021/08/13 03:43:45;;;;;;;6.90;4.40;;;;;;;17.12;98.09;101471.00;5093277;28;20436;-72
2021/08/13 03:46:11;;;;;;;10.00;4.40;;;;;;;17.19;97.86;101471.34;5093020;28;20429;-72
2021/08/13 03:48:39;;;;;;;7.33;4.70;;;;;;;17.21;97.61;101477.28;5093209;28;20455;-72
2021/08/13 03:51:06;;;;;;;6.80;5.40;;;;;;;17.27;97.66;101470.53;5093252;28;20461;-72
2021/08/13 03:53:32;;;;;;;8.17;5.07;;;;;;;17.32;97.64;101466.81;5093283;28;20460;-72
2021/08/13 03:55:59;;;;;;;7.33;4.43;;;;;;;17.38;97.85;101468.22;5093350;28;20491;-72
2021/08/13 03:58:25;;;;;;;8.67;5.23;;;;;;;17.37;98.19;101461.97;5092985;28;20953;-71
2021/08/13 04:00:51;;;;;;;7.67;4.60;;;;;;;17.42;97.84;101462.91;5092891;28;20448;-72
2021/08/13 04:03:18;;;;;;;8.23;5.57;;;;;;;17.45;97.61;101462.28;5094384;28;20468;-72
2021/08/13 04:05:46;;;;;;;15.10;5.27;;;;;;;17.50;97.86;101471.13;5093098;28;20447;-72
2021/08/13 04:08:12;;;;;;;6.83;4.10;;;;;;;17.57;97.58;101462.38;5093095;28;20437;-72
2021/08/13 04:10:38;;;;;;;7.80;4.63;;;;;;;17.58;97.75;101464.00;5092797;28;20452;-72
2021/08/13 04:13:05;;;;;;;7.87;4.97;;;;;;;17.60;97.80;101464.47;5092972;28;20457;-72
2021/08/13 04:15:31;;;;;;;5.70;4.20;;;;;;;17.63;97.83;101455.63;5095987;28;20447;-72
2021/08/13 04:17:58;;;;;;;6.60;4.50;;;;;;;17.68;97.45;101466.38;5096833;28;20480;-71
2021/08/13 04:20:24;;;;;;;5.90;3.73;;;;;;;17.69;97.40;101461.72;5096895;28;20448;-72
2021/08/13 04:22:52;;;;;;;9.60;5.37;;;;;;;17.72;98.03;101453.66;5096738;28;20456;-72
2021/08/13 04:25:19;;;;;;;6.10;4.17;;;;;;;17.77;97.89;101453.50;5096764;28;20440;-72
2021/08/13 04:27:45;;;;;;;11.03;5.20;;;;;;;17.74;97.11;101462.34;5096781;28;20432;-72
2021/08/13 04:30:13;;;;;;;8.03;3.90;;;;;;;17.72;95.56;101464.59;5096736;28;20447;-72
2021/08/13 04:32:39;;;;;;;6.87;4.13;;;;;;;17.75;93.66;101465.91;5096266;28;20567;-72
2021/08/13 04:35:06;;;;;;;6.93;4.80;;;;;;;17.76;91.91;101473.81;5096594;28;20444;-72
2021/08/13 04:37:33;;;;;;;4.83;4.27;;;;;;;17.76;92.70;101473.81;5096565;28;20590;-72
2021/08/13 04:40:00;;;;;;;6.07;4.40;;;;;;;17.75;94.02;101466.72;5096174;28;20954;-72
2021/08/13 04:42:27;;;;;;;5.83;3.70;;;;;;;17.80;95.12;101473.97;5096373;28;20462;-72
2021/08/13 04:44:53;;;;;;;7.60;5.13;;;;;;;17.83;95.69;101465.06;5096420;28;20815;-72
2021/08/13 04:47:20;;;;;;;10.40;4.13;;;;;;;17.86;96.84;101462.47;5096394;28;20795;-72
2021/08/13 04:49:46;;;;;;;8.40;5.10;;;;;;;17.95;96.91;101464.38;5096312;28;20444;-72
2021/08/13 04:52:13;;;;;;;10.60;4.93;;;;;;;17.99;97.20;101465.34;5096235;28;20464;-72
2021/08/13 04:54:40;;;;;;;12.30;5.50;;;;;;;18.03;97.45;101458.06;5095902;28;20894;-72
2021/08/13 04:57:08;;;;;;;6.60;5.17;;;;;;;18.02;98.02;101462.75;5095799;28;21000;-72
2021/08/13 04:59:34;;;;;;;8.03;4.33;;;;;;;18.07;97.78;101468.03;5096164;28;20436;-72
2021/08/13 05:02:00;;;;;;;6.67;4.87;;;;;;;18.08;97.98;101460.63;5095992;28;20839;-72
2021/08/13 05:04:27;;;;;;;6.67;5.33;;;;;;;18.12;97.88;101464.31;5096051;28;20436;-71
2021/08/13 05:06:53;;;;;;;9.63;4.87;;;;;;;18.17;98.05;101466.06;5095973;28;20463;-71
2021/08/13 05:09:20;;;;;;;7.13;4.80;;;;;;;18.20;98.31;101457.97;5095972;28;20439;-72
2021/08/13 05:11:46;;;;;;;11.77;4.80;;;;;;;18.22;98.52;101461.19;5102689;28;20471;-71
2021/08/13 05:14:14;;;;;;;7.60;4.60;;;;;;;18.30;98.14;101462.28;5095873;28;20440;-72
2021/08/13 05:16:40;;;;;;;7.00;5.20;;;;;;;18.31;95.84;101463.88;5095813;28;20451;-72
2021/08/13 05:19:07;;;;;;;9.33;4.13;;;;;;;18.27;93.08;101454.69;5095787;28;20440;-71
2021/08/13 05:21:37;;;;;;;6.03;4.70;;;;;;;18.22;91.64;101466.66;5095662;28;20441;-71
2021/08/13 05:24:04;;;;;;;7.40;4.50;;;;;;;18.19;91.75;101464.56;5095424;28;20950;-71
2021/08/13 05:26:30;;;;;;;7.00;4.07;;;;;;;18.17;93.80;101466.06;5095293;28;20445;-71
2021/08/13 05:28:56;;;;;;;7.00;4.73;;;;;;;18.17;95.23;101469.59;5095577;28;20447;-71
2021/08/13 05:31:24;;;;;;;11.17;5.10;;;;;;;18.13;96.62;101468.66;5095030;28;20979;-71
2021/08/13 05:33:51;;;;;;;8.10;4.67;;;;;;;18.11;97.29;101470.94;5095217;28;20928;-71
2021/08/13 05:36:17;;;;;;;10.70;4.27;;;;;;;18.08;98.32;101471.59;5095430;28;20447;-71
2021/08/13 05:38:43;;;;;;;9.53;4.63;;;;;;;18.07;98.71;101469.97;5095315;28;20506;-71
2021/08/13 05:41:10;;;;;;;7.67;4.87;;;;;;;18.04;98.94;101476.13;5095366;28;20447;-71
2021/08/13 05:43:36;;;;;;;6.83;4.57;;;;;;;18.03;99.75;101475.31;5095271;28;20459;-71
2021/08/13 05:46:03;;;;;;;10.03;4.90;;;;;;;18.04;100.00;101473.38;5095231;28;20444;-71
2021/08/13 05:48:31;;;;;;;8.57;5.53;;;;;;;18.10;100.00;101477.53;5094871;28;20807;-71
2021/08/13 05:50:57;;;;;;;7.67;4.60;;;;;;;18.12;100.00;101475.28;5095137;28;20826;-71
2021/08/13 05:53:23;;;;;;;9.20;5.17;;;;;;;18.16;100.00;101473.47;5095266;28;20456;-71
2021/08/13 05:55:50;;;;;;;10.90;4.73;;;;;;;18.24;99.78;101474.56;5094693;28;20796;-71
2021/08/13 05:58:16;;;;;;;11.27;5.30;;;;;;;18.33;99.85;101478.06;5094987;28;20491;-71
2021/08/13 06:00:43;;;;;;;9.83;5.40;;;;;;;18.37;99.61;101476.25;5094969;28;20455;-71
2021/08/13 06:03:09;;;;;;;7.47;5.43;;;;;;;18.47;99.27;101473.16;5094854;28;20467;-71
2021/08/13 06:05:37;;;;;;;7.27;5.00;;;;;;;18.53;98.75;101471.00;5094626;28;20933;-71
2021/08/13 06:08:03;;;;;;;8.10;5.77;;;;;;;18.63;97.74;101471.41;5094822;28;20437;-71
2021/08/13 06:10:30;;;;;;;16.00;5.40;;;;;;;18.76;97.08;101468.75;5094787;28;20444;-71
2021/08/13 06:12:56;;;;;;;7.27;4.90;;;;;;;18.86;95.77;101477.41;5094632;28;20463;-71
2021/08/13 06:15:23;;;;;;;9.00;5.03;;;;;;;18.99;94.88;101483.78;5094659;28;20448;-71
2021/08/13 06:17:49;;;;;;;10.07;5.80;;;;;;;19.16;93.20;101482.78;5094543;28;20491;-71
2021/08/13 06:20:18;;;;;;;10.00;6.57;;;;;;;19.39;89.91;101486.78;5094593;28;20447;-71
2021/08/13 06:22:46;;;;;;;11.60;5.83;;;;;;;19.61;88.07;101487.53;5094467;28;20460;-71
2021/08/13 06:25:12;;;;;;;7.37;4.77;;;;;;;19.77;87.98;101482.22;5094224;28;20486;-72
2021/08/13 06:27:43;;;;;;;8.93;5.70;;;;;;;19.93;88.87;101496.09;5094418;28;20432;-71
2021/08/13 06:30:11;;;;;;;7.40;4.97;;;;;;;20.05;87.42;101493.34;5094385;28;20444;-71
2021/08/13 06:32:38;;;;;;;6.90;4.93;;;;;;;20.22;85.77;101498.63;5093913;28;20543;-71
2021/08/13 06:35:05;;;;;;;7.50;5.10;;;;;;;20.39;86.16;101503.88;5094321;28;20455;-71
2021/08/13 06:37:31;;;;;;;8.33;4.80;;;;;;;20.51;85.14;101494.84;5093432;28;20480;-71
2021/08/13 06:39:59;;;;;;;6.90;5.23;;;;;;;20.70;85.23;101497.00;5094229;28;20458;-71
2021/08/13 06:42:26;;;;;;;7.13;4.80;;;;;;;20.87;82.88;101480.19;5094109;28;20464;-71
2021/08/13 06:44:52;;;;;;;8.50;5.23;;;;;;;21.09;81.98;101480.81;5094113;28;20497;-71
2021/08/13 06:47:18;;;;;;;6.13;4.47;;;;;;;21.24;82.16;101477.28;5094468;28;20444;-72
2021/08/13 06:49:45;;;;;;;8.20;4.87;;;;;;;21.44;79.87;101480.22;5094060;28;20448;-72
2021/08/13 06:52:11;;;;;;;6.33;4.60;;;;;;;21.56;80.65;101480.16;5093595;28;20471;-72
2021/08/13 06:54:37;;;;;;;8.40;5.40;;;;;;;21.66;80.50;101494.22;5093913;28;20440;-73
2021/08/13 06:57:05;;;;;;;5.07;4.37;;;;;;;21.71;79.13;101492.38;5093494;28;20949;-73
2021/08/13 06:59:32;;;;;;;8.33;4.63;;;;;;;21.80;79.42;101495.75;5093598;28;20805;-75
2021/08/13 07:01:58;;;;;;;8.43;4.93;;;;;;;21.85;77.51;101489.97;5093685;28;20471;-72
2021/08/13 07:04:25;;;;;;;5.57;3.43;;;;;;;21.96;77.55;101484.69;5093790;28;20459;-73
2021/08/13 07:06:51;;;;;;;6.87;4.07;;;;;;;22.03;77.04;101493.16;5093701;28;20436;-72
2021/08/13 07:09:17;;;;;;;8.60;3.80;;;;;;;22.09;75.32;101489.78;5100343;28;20459;-74
2021/08/13 07:11:44;;;;;;;10.53;5.10;;;;;;;22.13;74.43;101490.72;5093689;28;20531;-74
2021/08/13 07:14:11;;;;;;;5.60;4.07;;;;;;;22.17;74.12;101491.56;5093332;28;20451;-73
2021/08/13 07:16:38;;;;;;;5.50;4.17;;;;;;;22.23;75.84;101492.13;5093663;28;20440;-73
2021/08/13 07:19:04;;;;;;;6.40;4.17;;;;;;;22.30;76.46;101494.22;5093750;28;20484;-73
2021/08/13 07:21:31;;;;;;;5.33;4.03;;;;;;;22.36;74.65;101492.81;5093836;28;20481;-72
2021/08/13 07:23:57;;;;;;;6.53;4.13;;;;;;;22.42;75.56;101496.88;5093657;28;20440;-73
2021/08/13 07:26:24;;;;;;;5.63;4.17;;;;;;;22.49;75.21;101496.25;5093668;28;20444;-72
2021/08/13 07:28:50;;;;;;;6.77;4.37;;;;;;;22.54;74.37;101498.75;5093577;28;20440;-74
2021/08/13 07:31:18;;;;;;;11.87;5.20;;;;;;;22.49;73.45;101499.00;5093288;28;20475;-73
2021/08/13 07:33:44;;;;;;;5.50;3.53;;;;;;;22.57;74.73;101498.00;5093594;28;20425;-73
2021/08/13 07:36:11;;;;;;;7.80;4.63;;;;;;;22.69;75.10;101489.59;5093122;28;20909;-73
2021/08/13 07:38:40;;;;;;;6.73;4.50;;;;;;;22.75;73.90;101485.38;5093070;28;20615;-72
2021/08/13 07:41:07;;;;;;;6.80;4.60;;;;;;;22.87;72.99;101487.22;5093382;28;20475;-72
2021/08/13 07:43:33;;;;;;;6.30;4.43;;;;;;;22.94;74.11;101495.69;5093287;28;20467;-73
2021/08/13 07:46:00;;;;;;;7.77;3.73;;;;;;;22.99;76.00;101487.13;5093375;28;20441;-73
2021/08/13 07:48:28;;;;;;;4.67;3.43;;;;;;;23.04;73.67;101494.31;5094698;28;20443;-73
2021/08/13 07:50:54;;;;;;;9.10;4.50;;;;;;;23.12;74.49;101493.28;5097491;28;20440;-73
2021/08/13 07:53:21;;;;;;;4.80;3.60;;;;;;;23.23;70.68;101491.53;5097389;28;20862;-73
2021/08/13 07:55:47;;;;;;;5.70;3.87;;;;;;;23.35;70.42;101496.91;5097407;28;20451;-73
2021/08/13 07:58:14;;;;;;;5.60;4.00;;;;;;;23.47;68.59;101497.91;5097299;28;20488;-73
2021/08/13 08:00:40;;;;;;;4.47;3.27;;;;;;;23.53;69.03;101491.72;5097361;28;20436;-73
2021/08/13 08:03:07;;;;;;;7.53;3.77;;;;;;;23.52;72.43;101492.88;5097156;28;20456;-73
2021/08/13 08:05:35;;;;;;;4.60;3.50;;;;;;;23.54;74.49;101492.50;5097277;28;20540;-73
2021/08/13 08:08:01;;;;;;;6.40;3.73;;;;;;;23.57;75.29;101491.78;5097123;28;20440;-73
2021/08/13 08:10:28;;;;;;;4.23;3.43;;;;;;;23.58;74.83;101488.63;5096809;28;20822;-75
2021/08/13 08:12:54;;;;;;;4.97;3.80;;;;;;;23.60;72.91;101494.63;5096973;28;20463;-73
2021/08/13 08:15:21;;;;;;;4.33;3.40;;;;;;;23.63;72.35;101498.59;5097057;28;20440;-73
2021/08/13 08:17:47;;;;;;;6.17;4.37;;;;;;;23.64;73.67;101489.13;5096795;28;20475;-73
2021/08/13 08:20:13;;;;;;;4.37;3.10;;;;;;;23.66;72.02;101495.94;5096975;28;20451;-73
2021/08/13 08:22:41;;;;;;;7.53;3.50;;;;;;;23.74;71.10;101494.09;5096568;28;21023;-73
2021/08/13 08:25:09;;;;;;;4.90;3.50;;;;;;;23.83;68.46;101493.84;5096861;28;20443;-73
2021/08/13 08:27:36;;;;;;;7.40;3.73;;;;;;;23.92;68.30;101497.97;5096514;28;20437;-73
2021/08/13 08:30:04;;;;;;;4.17;3.20;;;;;;;24.00;68.98;101495.31;5096683;28;20501;-73
2021/08/13 08:32:31;;;;;;;4.60;3.50;;;;;;;24.06;70.38;101494.63;5096231;28;20480;-73
2021/08/13 08:34:57;;;;;;;6.43;3.90;;;;;;;24.17;69.82;101500.31;5096550;28;20444;-73
2021/08/13 08:37:23;;;;;;;7.07;3.80;;;;;;;24.31;68.53;101503.31;5096619;28;20448;-73
2021/08/13 08:39:51;;;;;;;5.80;3.87;;;;;;;24.39;69.99;101501.47;5096439;28;20480;-73
2021/08/13 08:42:21;;;;;;;5.27;3.47;;;;;;;24.48;67.55;101502.03;5087292;28;20484;-73
2021/08/13 08:44:48;;;;;;;5.90;3.73;;;;;;;24.73;66.32;101505.13;5075811;28;20953;-73
2021/08/13 08:47:17;;;;;;;5.80;4.03;;;;;;;24.90;65.54;101512.09;5076171;28;20479;-73
2021/08/13 08:49:44;;;;;;;7.17;4.80;;;;;;;25.01;66.57;101503.91;5076132;28;20469;-73
2021/08/13 08:52:12;;;;;;;8.33;3.70;;;;;;;25.08;65.70;101499.28;5075890;28;20511;-73
2021/08/13 08:54:39;;;;;;;6.83;3.73;;;;;;;25.26;66.02;101499.47;5074838;28;20445;-73
2021/08/13 08:57:08;;;;;;;4.93;4.30;;;;;;;25.33;66.25;101502.34;5075954;28;20437;-73
2021/08/13 08:59:34;;;;;;;4.53;3.93;;;;;;;25.37;67.10;101494.84;5075409;28;20491;-73
2021/08/13 09:02:01;;;;;;;3.77;3.00;;;;;;;25.39;66.62;101486.94;5075625;28;20472;-73
2021/08/13 09:04:27;;;;;;;4.40;3.80;;;;;;;25.55;64.49;101497.03;5075903;28;20441;-73
2021/08/13 09:06:55;;;;;;;7.87;4.13;;;;;;;25.60;63.29;101500.25;5075805;28;20457;-73
2021/08/13 09:09:21;;;;;;;5.27;3.50;;;;;;;25.65;63.48;101499.88;5082688;28;20446;-74
2021/08/13 09:11:48;;;;;;;5.53;3.90;;;;;;;25.69;64.87;101504.69;5075604;28;20469;-73
2021/08/13 09:14:16;;;;;;;6.37;3.30;;;;;;;25.82;57.79;101519.91;5075670;28;20441;-74
2021/08/13 09:17:01;;;;;;;4.80;3.30;;;;;;;25.95;60.11;101523.19;5075217;28;20476;-74
2021/08/13 09:19:41;;;;;;;6.13;3.13;;;;;;;25.98;60.50;101522.41;5075542;28;20461;-73
2021/08/13 09:22:09;;;;;;;3.90;2.53;;;;;;;26.11;57.18;101520.94;5075501;28;20534;-73
2021/08/13 09:24:38;;;;;;;3.90;2.80;;;;;;;26.29;56.71;101518.28;5075531;28;20437;-73
2021/08/13 09:27:20;;;;;;;3.70;2.80;;;;;;;26.47;55.82;101507.31;5075414;28;20453;-73
2021/08/13 09:30:12;;;;;;;3.37;2.83;;;;;;;26.52;56.52;101505.00;5075367;28;20441;-73
2021/08/13 09:32:39;;;;;;;3.97;2.83;;;;;;;26.57;56.59;101506.59;5074779;28;21015;-73
2021/08/13 09:35:06;;;;;;;4.40;3.30;;;;;;;26.61;54.13;101499.09;5075220;28;20454;-73
2021/08/13 09:37:34;;;;;;;4.17;3.70;;;;;;;26.67;54.83;101506.66;5075241;28;20436;-73
2021/08/13 09:40:00;;;;;;;3.03;2.50;;;;;;;26.76;55.14;101511.88;5075099;28;20477;-73
2021/08/13 09:42:35;;;;;;;4.13;2.73;;;;;;;26.84;54.50;101513.50;5075093;28;20464;-73
2021/08/13 09:45:03;;;;;;;4.00;2.83;;;;;;;26.92;56.06;101508.78;5075038;28;20448;-73
2021/08/13 09:47:44;;;;;;;5.50;3.23;;;;;;;26.95;54.89;101505.19;5075083;28;20441;-73
2021/08/13 09:50:11;;;;;;;4.90;3.23;;;;;;;26.95;54.87;101496.06;5075014;28;20429;-72
2021/08/13 09:52:39;;;;;;;2.73;2.50;;;;;;;27.01;54.71;101483.38;5074857;28;20554;-73
2021/08/13 09:55:09;;;;;;;3.00;2.60;;;;;;;27.04;54.42;101491.72;5074852;28;20540;-74
2021/08/13 09:57:43;;;;;;;4.47;3.17;;;;;;;27.08;55.63;101500.06;5074843;28;20433;-72
2021/08/13 10:00:11;;;;;;;4.00;3.33;;;;;;;27.24;54.49;101506.13;5074728;28;20890;-73
2021/08/13 10:02:39;;;;;;;6.10;3.17;;;;;;;27.40;53.80;101502.97;5076091;28;20469;-72
2021/08/13 10:05:17;;;;;;;4.47;3.53;;;;;;;27.49;54.67;101503.38;5074647;28;20441;-74
2021/08/13 10:07:48;;;;;;;5.13;2.80;;;;;;;27.48;52.69;101495.44;5074688;28;20425;-73
2021/08/13 10:10:15;;;;;;;4.27;3.00;;;;;;;27.45;54.63;101490.66;5074529;28;20495;-72
2021/08/13 10:12:43;;;;;;;4.17;2.70;;;;;;;27.54;54.09;101505.00;5073409;28;20497;-72
2021/08/13 10:15:10;;;;;;;5.10;2.47;;;;;;;27.55;55.74;101498.25;5074441;28;20445;-72
2021/08/13 10:17:39;;;;;;;3.57;2.53;;;;;;;27.64;53.05;101485.53;5074315;28;20452;-74
2021/08/13 10:20:07;;;;;;;3.43;2.60;;;;;;;27.80;54.39;101501.88;5074254;28;20488;-73
2021/08/13 10:22:34;;;;;;;2.93;2.57;;;;;;;27.89;54.75;101493.94;5074139;28;20464;-73
2021/08/13 10:25:01;;;;;;;3.00;2.07;;;;;;;27.94;53.77;101501.09;5074220;28;20441;-73
2021/08/13 10:27:28;;;;;;;4.80;3.30;;;;;;;27.93;51.69;101499.47;5074245;28;20441;-73
2021/08/13 10:29:55;;;;;;;8.37;3.73;;;;;;;27.92;54.63;101493.13;5074002;28;20464;-73
2021/08/13 10:32:22;;;;;;;4.93;3.40;;;;;;;27.79;56.22;101489.13;5073702;28;20485;-72
2021/08/13 10:34:50;;;;;;;3.80;2.70;;;;;;;28.01;51.66;101497.50;5074013;28;20468;-72
2021/08/13 10:37:18;;;;;;;3.40;2.40;;;;;;;28.09;54.20;101499.09;5074300;28;20445;-71
2021/08/13 10:39:47;;;;;;;5.00;2.87;;;;;;;28.29;52.23;101503.06;5074085;28;20481;-70
2021/08/13 10:42:18;;;;;;;3.23;2.70;;;;;;;28.49;52.23;101497.06;5073875;28;20468;-71
2021/08/13 10:44:47;;;;;;;3.30;2.60;;;;;;;28.55;50.05;101504.59;5073884;28;20426;-71
2021/08/13 10:47:20;;;;;;;2.77;2.40;;;;;;;28.62;50.44;101493.44;5073826;28;20464;-72
2021/08/13 10:49:48;;;;;;;4.43;2.70;;;;;;;28.69;49.56;101494.59;5073544;28;20914;-71
2021/08/13 10:52:16;;;;;;;4.60;2.73;;;;;;;28.72;49.98;101497.38;5073839;28;20465;-71
2021/08/13 10:54:45;;;;;;;2.50;2.30;;;;;;;28.75;48.16;101495.78;5073507;28;20444;-71
2021/08/13 10:57:12;;;;;;;5.33;2.40;;;;;;;28.75;48.40;101496.59;5073909;28;20445;-71
2021/08/13 10:59:57;;;;;;;4.30;2.43;;;;;;;28.84;49.09;101496.94;5073463;28;21024;-71
2021/08/13 11:02:23;;;;;;;3.73;1.90;;;;;;;28.97;49.08;101486.16;5073699;28;20526;-71
2021/08/13 11:04:52;;;;;;;2.93;2.40;;;;;;;29.09;47.65;101490.50;5073609;28;20445;-71
2021/08/13 11:07:52;;;;;;;2.50;2.17;;;;;;;29.28;48.97;101487.19;5073592;28;20437;-72
2021/08/13 11:10:55;;;;;;;2.53;2.10;;;;;;;29.45;49.02;101487.50;5075281;28;20433;-72
2021/08/13 11:13:23;;;;;;;3.30;2.33;;;;;;;29.64;49.12;101492.56;5073302;28;20461;-72
2021/08/13 11:15:50;;;;;;;2.67;2.10;;;;;;;29.66;46.64;101490.16;5073425;28;20463;-72
2021/08/13 11:18:27;;;;;;;3.50;2.30;;;;;;;29.79;47.10;101484.84;5073347;28;20450;-71
2021/08/13 11:20:53;;;;;;;5.33;2.40;;;;;;;30.03;46.35;101485.88;5073338;28;20452;-72
2021/08/13 11:23:20;;;;;;;3.40;2.57;;;;;;;30.70;45.72;101489.19;5073095;28;20468;-72
2021/08/13 11:25:47;;;;;;;2.63;2.03;;;;;;;31.63;45.10;101478.31;5073281;28;20873;-72
2021/08/13 11:28:20;;;;;;;5.77;2.43;;;;;;;32.33;43.18;101485.16;5073322;28;20454;-72